Time;durP1;ratioP1;P1;durP2;ratioP2;P2;SDS_P1;SDS_P2;PMS_P1;PMS_P2;Temp;Humidity;BMP_temperature;BMP_pressure;BME280_temperature;BME280_humidity;BME280_pressure;Samples;Min_cycle;Max_cycle;Signal;HPM_P1;HPM_P2
2023/11/18 00:00:55;;;;;;;23.93;16.87;;;7.90;99.90;;;;;;4980943;28;20473;-82
2023/11/18 00:03:22;;;;;;;27.90;18.00;;;7.90;99.90;;;;;;4980788;28;20489;-82
2023/11/18 00:05:49;;;;;;;26.43;19.20;;;7.90;99.90;;;;;;4982368;28;20495;-82
2023/11/18 00:08:17;;;;;;;29.50;18.80;;;7.90;99.90;;;;;;4982515;28;20477;-82
2023/11/18 00:10:47;;;;;;;24.90;16.67;;;7.90;99.90;;;;;;4980137;28;20481;-82
2023/11/18 00:13:14;;;;;;;27.00;17.90;;;7.90;99.90;;;;;;4978825;28;20454;-81
2023/11/18 00:15:42;;;;;;;29.83;18.50;;;7.90;99.90;;;;;;4980264;28;20468;-81
2023/11/18 00:18:11;;;;;;;25.23;17.80;;;7.90;99.90;;;;;;4979851;28;20939;-82
2023/11/18 00:20:38;;;;;;;24.30;16.40;;;7.90;99.90;;;;;;4982386;28;20468;-81
2023/11/18 00:23:07;;;;;;;25.67;17.73;;;7.90;99.90;;;;;;4984525;28;21013;-82
2023/11/18 00:25:36;;;;;;;29.87;20.00;;;7.90;99.90;;;;;;4997151;28;20990;-81
2023/11/18 00:28:07;;;;;;;27.93;19.07;;;7.90;99.90;;;;;;4966650;28;20461;-81
2023/11/18 00:30:34;;;;;;;28.77;19.50;;;7.90;99.90;;;;;;4982377;28;20488;-81
2023/11/18 00:33:00;;;;;;;29.83;18.13;;;8.00;99.90;;;;;;4980928;28;20995;-82
2023/11/18 00:35:27;;;;;;;28.90;18.07;;;7.90;99.90;;;;;;4980014;28;20453;-81
2023/11/18 00:37:54;;;;;;;25.03;16.33;;;7.90;99.90;;;;;;4979893;28;20445;-82
2023/11/18 00:40:21;;;;;;;28.07;20.00;;;7.90;99.90;;;;;;4979176;28;20477;-82
2023/11/18 00:42:50;;;;;;;28.17;17.90;;;7.90;99.90;;;;;;4978587;28;20994;-82
2023/11/18 00:45:19;;;;;;;21.97;17.67;;;7.90;99.90;;;;;;4978413;28;20819;-81
2023/11/18 00:47:45;;;;;;;24.67;17.60;;;7.90;99.90;;;;;;4979298;28;20794;-82
2023/11/18 00:50:13;;;;;;;29.50;18.13;;;7.90;99.90;;;;;;4978871;28;20994;-81
2023/11/18 00:52:41;;;;;;;29.87;18.80;;;7.90;99.90;;;;;;4980274;28;20461;-81
2023/11/18 00:55:10;;;;;;;25.67;17.07;;;7.90;99.90;;;;;;4978839;28;20460;-81
2023/11/18 00:57:41;;;;;;;23.27;17.20;;;7.90;99.90;;;;;;4979242;28;20822;-81
2023/11/18 01:00:13;;;;;;;23.10;16.90;;;7.90;99.90;;;;;;4977010;28;21027;-81
2023/11/18 01:02:42;;;;;;;21.73;15.63;;;7.90;99.90;;;;;;4978920;28;20984;-81
2023/11/18 01:05:10;;;;;;;22.37;15.63;;;7.90;99.90;;;;;;4979273;28;20824;-81
2023/11/18 01:07:37;;;;;;;21.03;16.20;;;7.90;99.90;;;;;;4979266;28;20871;-81
2023/11/18 01:10:07;;;;;;;20.60;15.43;;;7.90;99.90;;;;;;4979278;28;20480;-81
2023/11/18 01:12:34;;;;;;;19.03;14.93;;;7.90;99.90;;;;;;4979408;28;20445;-81
2023/11/18 01:15:00;;;;;;;23.87;15.67;;;7.90;99.90;;;;;;4978780;28;20457;-82
2023/11/18 01:17:27;;;;;;;21.57;15.80;;;7.90;99.90;;;;;;4985658;28;20449;-82
2023/11/18 01:19:58;;;;;;;21.30;16.53;;;7.90;99.90;;;;;;4976842;28;20468;-81
2023/11/18 01:22:27;;;;;;;26.13;18.10;;;7.80;99.90;;;;;;4975144;28;20852;-82
2023/11/18 01:24:54;;;;;;;23.83;17.47;;;7.80;99.90;;;;;;4976093;28;20452;-82
2023/11/18 01:27:22;;;;;;;29.57;17.37;;;7.80;99.90;;;;;;4976688;28;20448;-82
2023/11/18 01:29:49;;;;;;;25.30;16.50;;;7.80;99.90;;;;;;4976743;28;20512;-81
2023/11/18 01:32:19;;;;;;;27.00;18.40;;;7.80;99.90;;;;;;4975043;28;20939;-82
2023/11/18 01:34:50;;;;;;;25.27;18.37;;;7.90;99.90;;;;;;4976577;28;20445;-82
2023/11/18 01:37:21;;;;;;;28.70;19.07;;;7.90;99.90;;;;;;4982207;28;20440;-81
2023/11/18 01:39:48;;;;;;;27.50;18.90;;;7.90;99.90;;;;;;4982309;28;20535;-81
2023/11/18 01:42:15;;;;;;;25.33;17.00;;;7.90;99.90;;;;;;4982080;28;20449;-82
2023/11/18 01:44:42;;;;;;;30.40;19.80;;;7.90;99.90;;;;;;4980895;28;20445;-81
2023/11/18 01:47:12;;;;;;;31.13;19.13;;;7.90;99.90;;;;;;4983129;28;20532;-82
2023/11/18 01:49:40;;;;;;;26.17;19.53;;;7.90;99.90;;;;;;4982863;28;20507;-81
2023/11/18 01:52:09;;;;;;;25.93;17.43;;;7.80;99.90;;;;;;4982691;28;20451;-81
2023/11/18 01:54:39;;;;;;;29.27;19.23;;;7.80;99.90;;;;;;4983254;28;20445;-82
2023/11/18 01:57:09;;;;;;;26.13;18.13;;;7.70;99.90;;;;;;4983500;28;20433;-81
2023/11/18 01:59:37;;;;;;;27.23;18.03;;;7.70;99.90;;;;;;4983627;28;20472;-81
2023/11/18 02:02:05;;;;;;;28.17;17.20;;;7.70;99.90;;;;;;4982436;28;20448;-81
2023/11/18 02:04:35;;;;;;;24.43;17.60;;;7.70;99.90;;;;;;4984577;28;20506;-82
2023/11/18 02:07:08;;;;;;;26.40;19.60;;;7.80;99.90;;;;;;4983248;28;20934;-81
2023/11/18 02:09:37;;;;;;;32.03;19.53;;;7.80;99.90;;;;;;4983595;28;20576;-81
2023/11/18 02:12:16;;;;;;;26.50;17.40;;;7.70;99.90;;;;;;4983592;28;20503;-81
2023/11/18 02:14:44;;;;;;;29.37;19.53;;;7.70;99.90;;;;;;4983768;28;20519;-82
2023/11/18 02:17:13;;;;;;;26.70;17.73;;;7.70;99.90;;;;;;4984650;28;20453;-82
2023/11/18 02:19:41;;;;;;;26.23;18.87;;;7.70;99.90;;;;;;4983959;28;20472;-81
2023/11/18 02:22:11;;;;;;;30.73;19.73;;;7.60;99.90;;;;;;4983702;28;20449;-82
2023/11/18 02:24:41;;;;;;;30.37;20.80;;;7.60;99.90;;;;;;4983474;28;20511;-81
2023/11/18 02:27:11;;;;;;;29.00;16.67;;;7.60;99.90;;;;;;4984045;28;20458;-82
2023/11/18 02:29:40;;;;;;;30.27;18.87;;;7.60;99.90;;;;;;4983696;28;20986;-81
2023/11/18 02:32:15;;;;;;;32.03;19.00;;;7.60;99.90;;;;;;4984025;28;20452;-83
2023/11/18 02:34:53;;;;;;;31.07;18.70;;;7.60;99.90;;;;;;4983786;28;20480;-82
2023/11/18 02:37:22;;;;;;;28.33;17.90;;;7.60;99.90;;;;;;4983402;28;20512;-82
2023/11/18 02:39:57;;;;;;;32.60;20.33;;;7.60;99.90;;;;;;4985312;28;20527;-82
2023/11/18 02:42:27;;;;;;;29.30;19.67;;;7.60;99.90;;;;;;4991457;28;20448;-82
2023/11/18 02:44:59;;;;;;;27.60;18.33;;;7.60;99.90;;;;;;4987443;28;20445;-82
2023/11/18 02:47:27;;;;;;;32.10;18.27;;;7.60;99.90;;;;;;4980867;28;20441;-82
2023/11/18 02:50:05;;;;;;;27.97;19.13;;;7.60;99.90;;;;;;4981122;28;20467;-83
2023/11/18 02:52:32;;;;;;;30.50;19.13;;;7.60;99.90;;;;;;4981182;28;20429;-82
2023/11/18 02:54:59;;;;;;;33.43;19.40;;;7.50;99.90;;;;;;4979613;28;20453;-82
2023/11/18 02:57:28;;;;;;;34.80;19.07;;;7.60;99.90;;;;;;4979786;28;20449;-82
2023/11/18 02:59:55;;;;;;;33.87;19.03;;;7.60;99.90;;;;;;4979943;28;20475;-82
2023/11/18 03:02:23;;;;;;;30.90;16.93;;;7.60;99.90;;;;;;4981106;28;20449;-83
2023/11/18 03:04:50;;;;;;;30.07;18.67;;;7.60;99.90;;;;;;4981171;28;20512;-83
2023/11/18 03:07:16;;;;;;;30.47;17.57;;;7.50;99.90;;;;;;4981115;28;20445;-83
2023/11/18 03:09:43;;;;;;;31.07;20.07;;;7.50;99.90;;;;;;4978992;28;20469;-82
2023/11/18 03:12:11;;;;;;;31.10;18.97;;;7.50;99.90;;;;;;4981095;28;20445;-83
2023/11/18 03:14:39;;;;;;;31.90;18.90;;;7.50;99.90;;;;;;4981047;28;20845;-83
2023/11/18 03:17:06;;;;;;;30.50;19.60;;;7.50;99.90;;;;;;4981330;28;20464;-82
2023/11/18 03:19:34;;;;;;;33.27;19.13;;;7.50;99.90;;;;;;4979593;28;20480;-82
2023/11/18 03:22:01;;;;;;;37.07;19.97;;;7.50;99.90;;;;;;4981396;28;20457;-82
2023/11/18 03:24:29;;;;;;;33.73;17.67;;;7.60;99.90;;;;;;4980975;28;20477;-82
2023/11/18 03:26:57;;;;;;;41.93;19.53;;;7.60;99.90;;;;;;4979821;28;20481;-82
2023/11/18 03:29:24;;;;;;;31.83;18.93;;;7.60;99.90;;;;;;4981292;28;20473;-82
2023/11/18 03:31:53;;;;;;;35.07;19.70;;;7.60;99.90;;;;;;4979557;28;20516;-82
2023/11/18 03:34:20;;;;;;;34.47;19.13;;;7.60;99.90;;;;;;4979966;28;20442;-82
2023/11/18 03:36:47;;;;;;;37.37;20.13;;;7.60;99.90;;;;;;4979872;28;20450;-82
2023/11/18 03:39:15;;;;;;;35.43;20.20;;;7.60;99.90;;;;;;4980559;28;20845;-83
2023/11/18 03:41:44;;;;;;;38.67;20.13;;;7.60;99.90;;;;;;4980773;28;20465;-83
2023/11/18 03:44:12;;;;;;;37.63;20.77;;;7.60;99.90;;;;;;4980562;28;20481;-82
2023/11/18 03:46:39;;;;;;;39.43;21.23;;;7.60;99.90;;;;;;4980727;28;20464;-82
2023/11/18 03:49:07;;;;;;;39.20;21.20;;;7.60;99.90;;;;;;4980266;28;20469;-82
2023/11/18 03:51:35;;;;;;;45.37;22.23;;;7.60;99.90;;;;;;4981677;28;20456;-82
2023/11/18 03:54:02;;;;;;;42.40;21.57;;;7.60;99.90;;;;;;4984566;28;20449;-82
2023/11/18 03:56:29;;;;;;;41.03;21.50;;;7.60;99.90;;;;;;4989361;28;20484;-83
2023/11/18 03:58:56;;;;;;;46.90;24.17;;;7.60;99.90;;;;;;4976994;28;20469;-82
2023/11/18 04:01:26;;;;;;;43.63;23.07;;;7.60;99.90;;;;;;4978362;28;20460;-83
2023/11/18 04:03:53;;;;;;;46.30;23.73;;;7.60;99.90;;;;;;4979982;28;20508;-82
2023/11/18 04:06:24;;;;;;;40.57;22.33;;;7.60;99.90;;;;;;4979023;28;20870;-83
2023/11/18 04:08:52;;;;;;;44.77;22.13;;;7.60;99.90;;;;;;4981153;28;20453;-82
2023/11/18 04:11:19;;;;;;;44.77;22.83;;;7.60;99.90;;;;;;4981708;28;20454;-83
2023/11/18 04:13:48;;;;;;;41.70;23.40;;;7.60;99.90;;;;;;4980767;28;20854;-81
2023/11/18 04:16:16;;;;;;;45.40;23.60;;;7.60;99.90;;;;;;4981564;28;20455;-82
2023/11/18 04:18:44;;;;;;;44.47;22.60;;;7.60;99.90;;;;;;4980645;28;20441;-81
2023/11/18 04:21:15;;;;;;;45.93;24.93;;;7.60;99.90;;;;;;4980640;28;20453;-81
2023/11/18 04:23:46;;;;;;;42.40;23.43;;;7.60;99.90;;;;;;4979959;28;20469;-82
2023/11/18 04:26:15;;;;;;;45.67;23.17;;;7.60;99.90;;;;;;4980467;28;20505;-82
2023/11/18 04:28:42;;;;;;;42.87;21.83;;;7.50;99.90;;;;;;4980666;28;20449;-81
2023/11/18 04:31:09;;;;;;;55.33;24.03;;;7.50;99.90;;;;;;4980539;28;20453;-81
2023/11/18 04:33:36;;;;;;;45.13;23.17;;;7.50;99.90;;;;;;4980328;28;20453;-82
2023/11/18 04:36:05;;;;;;;45.20;24.17;;;7.60;99.90;;;;;;4979998;28;20453;-82
2023/11/18 04:38:32;;;;;;;38.00;22.30;;;7.60;99.90;;;;;;4978892;28;20806;-83
2023/11/18 04:41:00;;;;;;;42.17;23.23;;;7.60;99.90;;;;;;4980032;28;20453;-82
2023/11/18 04:43:29;;;;;;;41.73;23.90;;;7.60;99.90;;;;;;4979452;28;20489;-81
2023/11/18 04:45:56;;;;;;;42.60;23.33;;;7.60;99.90;;;;;;4977354;28;20543;-82
2023/11/18 04:48:24;;;;;;;47.67;25.20;;;7.60;99.90;;;;;;4979177;28;20456;-82
2023/11/18 04:50:51;;;;;;;40.47;25.40;;;7.60;99.90;;;;;;4979226;28;20457;-82
2023/11/18 04:53:18;;;;;;;45.93;25.73;;;7.70;99.90;;;;;;4979315;28;20863;-82
2023/11/18 04:55:44;;;;;;;40.97;23.27;;;7.60;99.90;;;;;;4987373;28;20429;-77
2023/11/18 04:58:15;;;;;;;48.87;27.53;;;7.60;99.90;;;;;;4988648;28;20459;-82
2023/11/18 05:00:43;;;;;;;43.03;24.83;;;7.60;99.90;;;;;;4984064;28;20947;-81
2023/11/18 05:03:10;;;;;;;41.40;24.67;;;7.60;99.90;;;;;;4980958;28;20450;-80
2023/11/18 05:05:38;;;;;;;41.17;24.53;;;7.70;99.90;;;;;;4979253;28;20881;-81
2023/11/18 05:08:07;;;;;;;43.77;24.33;;;7.70;99.90;;;;;;4979282;28;20456;-84
2023/11/18 05:10:36;;;;;;;41.63;25.00;;;7.70;99.90;;;;;;4978868;28;20544;-84
2023/11/18 05:13:03;;;;;;;43.37;25.40;;;7.70;99.90;;;;;;4979106;28;20449;-83
2023/11/18 05:15:31;;;;;;;42.83;24.50;;;7.70;99.90;;;;;;4978769;28;20463;-82
2023/11/18 05:17:58;;;;;;;40.60;22.33;;;7.70;99.90;;;;;;4978156;28;20461;-84
2023/11/18 05:20:25;;;;;;;40.43;22.90;;;7.70;99.90;;;;;;4980833;28;20532;-77
2023/11/18 05:22:53;;;;;;;39.43;22.50;;;7.70;99.90;;;;;;4978891;28;20453;-84
2023/11/18 05:25:20;;;;;;;37.73;21.13;;;7.70;99.90;;;;;;4976461;28;20532;-84
2023/11/18 05:27:47;;;;;;;35.83;22.60;;;7.70;99.90;;;;;;4984715;28;20445;-83
2023/11/18 05:30:14;;;;;;;38.13;22.67;;;7.70;99.90;;;;;;4983384;28;20462;-83
2023/11/18 05:32:42;;;;;;;36.50;21.07;;;7.70;99.90;;;;;;4982630;28;20438;-83
2023/11/18 05:35:11;;;;;;;40.77;22.83;;;7.70;99.90;;;;;;4983102;28;20882;-83
2023/11/18 05:37:40;;;;;;;30.93;19.27;;;7.70;99.90;;;;;;4981842;28;20955;-83
2023/11/18 05:40:09;;;;;;;33.33;21.30;;;7.70;99.90;;;;;;4981189;28;20505;-83
2023/11/18 05:42:37;;;;;;;36.03;21.20;;;7.70;99.90;;;;;;4981570;28;20814;-77
2023/11/18 05:45:07;;;;;;;35.03;20.70;;;7.70;99.90;;;;;;4979813;28;20484;-83
2023/11/18 05:47:35;;;;;;;35.43;19.40;;;7.70;99.90;;;;;;4980234;28;20449;-83
2023/11/18 05:50:05;;;;;;;32.97;20.47;;;7.70;99.90;;;;;;4962367;28;20473;-83
2023/11/18 05:52:32;;;;;;;37.73;21.20;;;7.70;99.90;;;;;;4979971;28;20433;-82
2023/11/18 05:54:59;;;;;;;36.73;22.27;;;7.80;99.90;;;;;;4979542;28;20448;-81
2023/11/18 05:57:27;;;;;;;35.90;19.87;;;7.80;99.90;;;;;;4978239;28;20862;-81
2023/11/18 05:59:54;;;;;;;30.63;20.63;;;7.80;99.90;;;;;;4978585;28;20496;-82
2023/11/18 06:02:22;;;;;;;32.37;20.20;;;7.80;99.90;;;;;;4977733;28;20459;-82
2023/11/18 06:04:49;;;;;;;33.77;20.20;;;7.80;99.90;;;;;;4978061;28;20508;-82
2023/11/18 06:07:18;;;;;;;33.73;20.97;;;7.80;99.90;;;;;;4978230;28;20453;-82
2023/11/18 06:09:46;;;;;;;30.43;17.90;;;7.80;99.90;;;;;;4976485;28;20477;-81
2023/11/18 06:12:13;;;;;;;40.30;21.40;;;7.80;99.90;;;;;;4978892;28;20456;-82
2023/11/18 06:14:42;;;;;;;30.80;18.50;;;7.80;99.90;;;;;;4977203;28;20503;-82
2023/11/18 06:17:08;;;;;;;34.40;20.67;;;7.80;99.90;;;;;;4977595;28;20817;-82
2023/11/18 06:19:35;;;;;;;31.37;18.40;;;7.80;99.90;;;;;;4977761;28;20477;-81
2023/11/18 06:22:02;;;;;;;30.63;17.90;;;7.80;99.90;;;;;;4980963;28;20573;-82
2023/11/18 06:24:31;;;;;;;30.97;18.57;;;7.80;99.90;;;;;;4981715;28;20488;-82
2023/11/18 06:26:59;;;;;;;27.83;17.20;;;7.80;99.90;;;;;;4984498;28;20453;-82
2023/11/18 06:29:29;;;;;;;27.43;17.83;;;7.80;99.90;;;;;;4987776;28;20536;-84
2023/11/18 06:31:56;;;;;;;31.10;17.53;;;7.80;99.90;;;;;;4982911;28;20456;-82
2023/11/18 06:34:23;;;;;;;28.40;17.23;;;7.80;99.90;;;;;;4988580;28;20480;-81
2023/11/18 06:36:50;;;;;;;29.03;18.07;;;7.80;99.90;;;;;;4981507;28;20457;-81
2023/11/18 06:39:19;;;;;;;26.07;16.83;;;7.80;99.90;;;;;;4979948;28;21006;-81
2023/11/18 06:41:50;;;;;;;29.13;17.43;;;7.80;99.90;;;;;;4981942;28;20560;-81
2023/11/18 06:44:23;;;;;;;26.77;17.00;;;7.80;99.90;;;;;;4983968;28;20475;-81
2023/11/18 06:46:50;;;;;;;26.90;17.90;;;7.80;99.90;;;;;;4981713;28;20445;-82
2023/11/18 06:49:18;;;;;;;26.67;16.80;;;7.80;99.90;;;;;;4981621;28;20504;-81
2023/11/18 06:51:45;;;;;;;27.67;17.10;;;7.80;99.90;;;;;;4965793;28;20445;-81
2023/11/18 06:54:13;;;;;;;29.07;18.37;;;7.80;99.90;;;;;;4983084;28;20456;-81
2023/11/18 06:56:42;;;;;;;27.70;18.03;;;7.80;99.90;;;;;;4981560;28;20457;-81
2023/11/18 06:59:12;;;;;;;28.70;16.97;;;7.90;99.90;;;;;;4981743;28;20477;-81
2023/11/18 07:01:40;;;;;;;31.03;18.20;;;7.90;99.90;;;;;;4983195;28;20449;-82
2023/11/18 07:04:11;;;;;;;30.23;18.00;;;7.90;99.90;;;;;;4981765;28;20807;-81
2023/11/18 07:06:39;;;;;;;28.07;17.83;;;7.90;99.90;;;;;;4987350;28;20459;-80
2023/11/18 07:09:13;;;;;;;31.23;18.33;;;7.90;99.90;;;;;;4971418;28;20499;-81
2023/11/18 07:11:40;;;;;;;30.80;18.97;;;7.90;99.90;;;;;;4983348;28;20488;-82
2023/11/18 07:14:09;;;;;;;36.30;19.57;;;7.90;99.90;;;;;;4980954;28;20465;-81
2023/11/18 07:16:38;;;;;;;28.93;19.23;;;7.90;99.90;;;;;;4980611;28;20453;-80
2023/11/18 07:19:05;;;;;;;31.93;18.60;;;7.90;99.90;;;;;;4980677;28;20468;-81
2023/11/18 07:21:32;;;;;;;28.60;17.60;;;7.90;99.90;;;;;;4982662;28;20468;-81
2023/11/18 07:23:59;;;;;;;28.37;18.50;;;7.90;99.90;;;;;;4982575;28;20485;-81
2023/11/18 07:26:26;;;;;;;28.07;18.90;;;7.90;99.90;;;;;;4982918;28;20458;-81
2023/11/18 07:28:53;;;;;;;31.97;19.10;;;7.90;99.90;;;;;;4982297;28;20472;-80
2023/11/18 07:31:19;;;;;;;30.87;18.60;;;7.90;99.90;;;;;;4981332;28;20449;-81
2023/11/18 07:33:49;;;;;;;27.40;17.87;;;8.00;99.90;;;;;;4981710;28;20452;-80
2023/11/18 07:36:16;;;;;;;26.80;17.73;;;8.00;99.90;;;;;;4982399;28;20492;-80
2023/11/18 07:38:44;;;;;;;26.00;17.20;;;8.00;99.90;;;;;;4980493;28;20951;-80
2023/11/18 07:41:23;;;;;;;26.50;18.50;;;8.00;99.90;;;;;;4981269;28;20489;-81
2023/11/18 07:43:50;;;;;;;29.10;17.93;;;8.00;99.90;;;;;;4980866;28;20804;-80
2023/11/18 07:46:17;;;;;;;25.67;15.77;;;8.00;99.90;;;;;;4980263;28;20484;-81
2023/11/18 07:48:44;;;;;;;29.00;16.77;;;8.00;99.90;;;;;;4981139;28;20820;-78
2023/11/18 07:51:14;;;;;;;30.03;18.90;;;8.10;99.90;;;;;;4981189;28;20942;-80
2023/11/18 07:53:43;;;;;;;27.33;17.20;;;8.10;99.90;;;;;;4980680;28;20431;-79
2023/11/18 07:56:12;;;;;;;27.30;17.50;;;8.10;99.90;;;;;;4980274;28;20544;-79
2023/11/18 07:58:45;;;;;;;28.73;17.27;;;8.10;99.90;;;;;;4980144;28;20460;-79
2023/11/18 08:01:15;;;;;;;30.50;17.70;;;8.20;99.90;;;;;;4981912;28;20434;-82
2023/11/18 08:03:43;;;;;;;25.53;17.20;;;8.20;99.90;;;;;;4981662;28;20456;-80
2023/11/18 08:06:13;;;;;;;24.47;16.60;;;8.20;99.90;;;;;;4981870;28;20487;-81
2023/11/18 08:08:40;;;;;;;25.60;17.07;;;8.30;99.90;;;;;;4980709;28;20462;-80
2023/11/18 08:11:08;;;;;;;25.13;18.57;;;8.30;99.90;;;;;;4982518;28;20450;-79
2023/11/18 08:13:35;;;;;;;29.03;18.00;;;8.30;99.90;;;;;;4977221;28;20969;-78
2023/11/18 08:16:01;;;;;;;21.10;16.43;;;8.40;99.90;;;;;;4978230;28;20430;-79
2023/11/18 08:18:30;;;;;;;19.60;14.63;;;8.40;99.90;;;;;;4981266;28;20456;-80
2023/11/18 08:20:59;;;;;;;21.87;15.20;;;8.40;99.90;;;;;;4983050;28;20506;-83
2023/11/18 08:23:29;;;;;;;19.30;14.47;;;8.40;99.90;;;;;;4982420;28;20479;-80
2023/11/18 08:25:56;;;;;;;20.47;15.33;;;8.40;99.90;;;;;;4980614;28;20829;-80
2023/11/18 08:28:22;;;;;;;22.60;14.73;;;8.50;99.90;;;;;;4976814;28;20449;-75
2023/11/18 08:30:51;;;;;;;20.70;14.80;;;8.50;99.90;;;;;;4974619;28;20505;-76
2023/11/18 08:33:18;;;;;;;22.50;14.53;;;8.60;99.90;;;;;;4975824;28;20481;-75
2023/11/18 08:35:46;;;;;;;21.57;13.37;;;8.60;99.90;;;;;;4974540;28;20445;-75
2023/11/18 08:38:15;;;;;;;17.00;12.90;;;8.60;99.90;;;;;;4974213;28;21015;-76
2023/11/18 08:40:44;;;;;;;19.37;13.60;;;8.70;99.90;;;;;;4974072;28;20860;-76
2023/11/18 08:43:11;;;;;;;21.40;13.57;;;8.70;99.90;;;;;;4975599;28;20527;-76
2023/11/18 08:45:38;;;;;;;16.50;10.57;;;8.70;99.90;;;;;;4974571;28;20499;-76
2023/11/18 08:48:07;;;;;;;15.80;11.03;;;8.70;99.90;;;;;;4975495;28;20451;-75
2023/11/18 08:50:34;;;;;;;17.83;10.17;;;8.70;99.90;;;;;;4975406;28;20543;-75
2023/11/18 08:53:04;;;;;;;12.43;9.80;;;8.70;99.90;;;;;;4975305;28;20870;-75
2023/11/18 08:55:39;;;;;;;14.80;10.07;;;8.70;99.90;;;;;;4976944;28;20519;-76
2023/11/18 08:58:18;;;;;;;12.17;9.67;;;8.80;99.90;;;;;;4976503;28;20850;-78
2023/11/18 09:00:53;;;;;;;16.23;11.53;;;8.80;99.90;;;;;;4976343;28;20479;-77
2023/11/18 09:03:28;;;;;;;14.77;9.77;;;8.80;99.90;;;;;;4976075;28;20440;-78
2023/11/18 09:06:03;;;;;;;14.23;9.00;;;8.80;99.90;;;;;;4974516;28;20546;-79
2023/11/18 09:08:34;;;;;;;11.97;9.80;;;8.80;99.90;;;;;;4976552;28;20503;-79
2023/11/18 09:11:02;;;;;;;13.70;10.40;;;8.80;99.90;;;;;;4976042;28;20422;-78
2023/11/18 09:13:31;;;;;;;13.73;8.83;;;8.90;99.90;;;;;;4977796;28;20457;-78
2023/11/18 09:16:00;;;;;;;11.43;9.50;;;8.90;99.90;;;;;;4979905;28;20434;-77
2023/11/18 09:18:27;;;;;;;14.73;9.60;;;8.90;99.90;;;;;;4985625;28;20429;-78
2023/11/18 09:20:55;;;;;;;14.43;9.50;;;9.00;99.90;;;;;;4989188;28;20449;-77
2023/11/18 09:23:25;;;;;;;12.50;10.07;;;9.00;99.90;;;;;;4982596;28;20485;-79
2023/11/18 09:25:53;;;;;;;17.33;8.30;;;9.10;99.90;;;;;;4979141;28;20465;-77
2023/11/18 09:28:22;;;;;;;14.13;8.17;;;9.10;99.90;;;;;;4978061;28;20516;-79
2023/11/18 09:30:53;;;;;;;11.80;9.30;;;9.10;99.90;;;;;;4977509;28;20818;-79
2023/11/18 09:33:28;;;;;;;12.57;10.27;;;9.20;99.90;;;;;;4978402;28;20490;-78
2023/11/18 09:35:58;;;;;;;10.83;8.83;;;9.20;99.90;;;;;;4978928;28;20429;-80
2023/11/18 09:38:27;;;;;;;11.03;8.83;;;9.20;99.90;;;;;;4978493;28;20456;-79
2023/11/18 09:40:54;;;;;;;12.60;10.20;;;9.30;99.90;;;;;;4978508;28;20523;-79
2023/11/18 09:43:21;;;;;;;11.17;9.30;;;9.40;99.90;;;;;;4977003;28;20445;-79
2023/11/18 09:45:55;;;;;;;12.70;10.20;;;9.40;99.90;;;;;;4979196;28;20480;-79
2023/11/18 09:48:25;;;;;;;11.20;10.00;;;9.40;99.90;;;;;;4978899;28;20773;-78
2023/11/18 09:50:53;;;;;;;12.47;9.70;;;9.40;99.90;;;;;;4977847;28;20480;-78
2023/11/18 09:53:20;;;;;;;13.80;10.27;;;9.50;99.90;;;;;;4977314;28;20449;-78
2023/11/18 09:55:59;;;;;;;17.43;9.87;;;9.50;99.90;;;;;;4979562;28;20452;-80
2023/11/18 09:58:41;;;;;;;11.43;9.80;;;9.60;99.90;;;;;;4981801;28;20432;-79
2023/11/18 10:01:13;;;;;;;14.23;9.40;;;9.60;99.90;;;;;;4981339;28;20958;-79
2023/11/18 10:03:42;;;;;;;11.13;8.90;;;9.60;99.90;;;;;;4980670;28;20946;-77
2023/11/18 10:06:10;;;;;;;13.37;8.70;;;9.60;99.90;;;;;;4980221;28;20485;-78
2023/11/18 10:08:38;;;;;;;11.93;8.77;;;9.70;99.90;;;;;;4979753;28;20947;-78
2023/11/18 10:11:08;;;;;;;12.07;9.17;;;9.60;99.90;;;;;;4978362;28;20898;-75
2023/11/18 10:13:40;;;;;;;11.87;9.50;;;9.60;99.90;;;;;;4978614;28;20461;-77
2023/11/18 10:16:10;;;;;;;12.37;8.63;;;9.60;99.90;;;;;;4978125;28;20441;-78
2023/11/18 10:18:48;;;;;;;8.37;7.27;;;9.60;99.90;;;;;;4976943;28;20449;-77
2023/11/18 10:21:18;;;;;;;9.27;6.90;;;9.60;99.90;;;;;;4977085;28;20426;-77
2023/11/18 10:24:03;;;;;;;10.73;5.80;;;9.60;99.90;;;;;;4978466;28;20449;-78
2023/11/18 10:26:31;;;;;;;6.33;5.10;;;9.60;99.90;;;;;;4978439;28;20473;-78
2023/11/18 10:29:07;;;;;;;11.47;5.50;;;9.60;99.90;;;;;;4978804;28;20477;-77
2023/11/18 10:31:36;;;;;;;21.03;6.20;;;9.60;99.90;;;;;;4978488;28;20436;-78
2023/11/18 10:34:03;;;;;;;10.80;4.93;;;9.60;99.90;;;;;;4978363;28;20445;-78
2023/11/18 10:36:33;;;;;;;11.10;6.20;;;9.60;99.90;;;;;;4977862;28;20931;-78
2023/11/18 10:39:12;;;;;;;7.87;4.80;;;9.70;99.90;;;;;;4978568;28;20884;-78
2023/11/18 10:41:43;;;;;;;8.10;5.00;;;9.70;99.90;;;;;;4978953;28;20515;-78
2023/11/18 10:44:13;;;;;;;11.93;5.73;;;9.80;99.90;;;;;;4977642;28;20448;-79
2023/11/18 10:46:52;;;;;;;10.30;5.60;;;9.80;99.90;;;;;;4980041;28;20523;-78
2023/11/18 10:49:21;;;;;;;6.17;4.33;;;9.80;99.90;;;;;;4979916;28;20822;-78
2023/11/18 10:51:48;;;;;;;5.97;5.37;;;9.80;99.90;;;;;;4980038;28;20464;-78
2023/11/18 10:54:17;;;;;;;10.33;5.03;;;9.80;99.90;;;;;;4977170;28;20453;-78
2023/11/18 10:56:47;;;;;;;7.43;5.20;;;9.70;99.90;;;;;;4976325;28;20512;-78
2023/11/18 10:59:20;;;;;;;7.90;4.70;;;9.70;99.90;;;;;;4980365;28;20461;-75
2023/11/18 11:01:49;;;;;;;5.87;4.70;;;9.50;99.90;;;;;;4984290;28;20883;-73
2023/11/18 11:04:20;;;;;;;8.53;5.10;;;9.60;99.90;;;;;;4981972;28;20453;-74
2023/11/18 11:07:01;;;;;;;7.43;5.00;;;9.50;99.90;;;;;;4982233;28;20500;-74
2023/11/18 11:09:35;;;;;;;11.63;5.53;;;9.40;99.90;;;;;;4986098;28;20464;-74
2023/11/18 11:12:14;;;;;;;6.20;5.40;;;9.50;99.90;;;;;;4988612;28;20430;-76
2023/11/18 11:14:48;;;;;;;9.30;5.23;;;9.50;99.90;;;;;;4977892;28;20543;-77
2023/11/18 11:17:26;;;;;;;7.50;5.40;;;9.50;99.90;;;;;;4975744;28;20437;-77
2023/11/18 11:20:11;;;;;;;6.30;4.80;;;9.50;99.90;;;;;;4978280;28;20465;-78
2023/11/18 11:22:45;;;;;;;6.97;5.03;;;9.50;99.90;;;;;;4980158;28;20441;-78
2023/11/18 11:25:21;;;;;;;7.83;4.83;;;9.60;99.90;;;;;;4978300;28;20468;-78
2023/11/18 11:28:01;;;;;;;7.87;4.90;;;9.60;99.90;;;;;;4980155;28;20480;-79
2023/11/18 11:30:32;;;;;;;7.43;4.70;;;9.70;99.90;;;;;;4980263;28;20498;-79
2023/11/18 11:33:16;;;;;;;5.20;4.70;;;9.60;99.90;;;;;;4991380;28;20472;-78
2023/11/18 11:35:50;;;;;;;4.90;3.93;;;9.60;99.90;;;;;;4983542;28;20980;-79
2023/11/18 11:38:19;;;;;;;7.47;4.10;;;9.50;99.90;;;;;;4981866;28;20433;-78
2023/11/18 11:40:47;;;;;;;7.57;3.90;;;9.60;99.90;;;;;;4980376;28;20465;-78
2023/11/18 11:43:21;;;;;;;6.87;4.83;;;9.60;99.90;;;;;;4982119;28;20457;-79
2023/11/18 11:45:49;;;;;;;6.47;3.97;;;9.60;99.90;;;;;;4980199;28;20564;-78
2023/11/18 11:48:26;;;;;;;6.90;3.67;;;9.60;99.90;;;;;;4978265;28;20449;-80
2023/11/18 11:51:20;;;;;;;10.00;4.27;;;9.60;99.90;;;;;;4979883;28;20487;-79
2023/11/18 11:53:53;;;;;;;5.27;3.43;;;9.70;99.90;;;;;;4987044;28;20429;-79
2023/11/18 11:56:24;;;;;;;4.97;4.10;;;9.70;99.90;;;;;;4978522;28;20488;-79
2023/11/18 11:58:53;;;;;;;6.87;4.57;;;9.70;99.90;;;;;;4977587;28;20449;-78
2023/11/18 12:01:32;;;;;;;5.03;3.40;;;9.80;99.90;;;;;;4976587;28;20536;-79
2023/11/18 12:04:06;;;;;;;6.20;3.60;;;9.70;99.90;;;;;;4978674;28;20438;-79
2023/11/18 12:06:35;;;;;;;6.27;3.67;;;9.80;99.90;;;;;;4978679;28;20480;-79
2023/11/18 12:09:06;;;;;;;6.27;3.40;;;9.80;99.90;;;;;;4961910;28;20836;-78
2023/11/18 12:11:37;;;;;;;5.00;3.97;;;9.80;99.90;;;;;;4962557;28;20536;-79
2023/11/18 12:14:32;;;;;;;6.47;3.50;;;9.80;99.90;;;;;;4978062;28;20479;-78
2023/11/18 12:17:07;;;;;;;8.47;3.97;;;9.90;99.90;;;;;;4977106;28;20469;-78
2023/11/18 12:19:48;;;;;;;4.80;2.90;;;9.90;99.90;;;;;;4960059;28;20830;-76
2023/11/18 12:22:24;;;;;;;6.00;2.57;;;9.90;99.90;;;;;;4975104;28;20465;-77
2023/11/18 12:25:33;;;;;;;6.90;2.90;;;9.90;99.90;;;;;;4974906;28;20822;-77
2023/11/18 12:28:07;;;;;;;3.80;2.63;;;9.90;99.90;;;;;;4977168;28;20911;-79
2023/11/18 12:30:55;;;;;;;4.70;2.87;;;9.90;99.90;;;;;;4979367;28;20990;-79
2023/11/18 12:33:24;;;;;;;7.90;2.40;;;9.90;99.90;;;;;;4962366;28;20469;-79
2023/11/18 12:36:44;;;;;;;5.43;2.53;;;9.80;99.90;;;;;;4975340;28;20449;-78
2023/11/18 12:39:54;;;;;;;3.73;2.10;;;9.90;99.90;;;;;;4974282;28;20469;-78
2023/11/18 12:42:59;;;;;;;2.77;2.30;;;9.90;99.90;;;;;;4984573;28;20453;-76
2023/11/18 12:46:00;;;;;;;3.70;1.60;;;9.80;99.90;;;;;;4984580;28;20803;-76
2023/11/18 12:48:36;;;;;;;4.37;2.90;;;9.80;99.90;;;;;;4981555;28;20476;-74
2023/11/18 12:51:10;;;;;;;4.47;2.93;;;9.80;99.90;;;;;;4982141;28;20463;-75
2023/11/18 12:53:38;;;;;;;3.53;2.07;;;9.80;99.90;;;;;;4982218;28;20798;-75
2023/11/18 12:56:06;;;;;;;5.90;2.50;;;9.90;99.90;;;;;;4988873;28;20477;-75